sensor_id;sensor_type;location;lat;lon;timestamp;P1;durP1;ratioP1;P2;durP2;ratioP2
74465;SDS011;62916;50.044;15.938;2023-09-12T00:00:27;8.50;;;7.20;;
74465;SDS011;62916;50.044;15.938;2023-09-12T00:02:58;9.70;;;7.90;;
74465;SDS011;62916;50.044;15.938;2023-09-12T00:05:29;9.10;;;8.00;;
74465;SDS011;62916;50.044;15.938;2023-09-12T00:07:59;8.60;;;7.50;;
74465;SDS011;62916;50.044;15.938;2023-09-12T00:10:31;9.70;;;7.90;;
74465;SDS011;62916;50.044;15.938;2023-09-12T00:13:02;8.10;;;7.10;;
74465;SDS011;62916;50.044;15.938;2023-09-12T00:15:33;8.70;;;7.80;;
74465;SDS011;62916;50.044;15.938;2023-09-12T00:18:05;9.20;;;7.80;;
74465;SDS011;62916;50.044;15.938;2023-09-12T00:20:36;8.90;;;7.70;;
74465;SDS011;62916;50.044;15.938;2023-09-12T00:23:07;8.80;;;7.90;;
74465;SDS011;62916;50.044;15.938;2023-09-12T00:25:38;9.20;;;7.90;;
74465;SDS011;62916;50.044;15.938;2023-09-12T00:28:09;9.50;;;8.50;;
74465;SDS011;62916;50.044;15.938;2023-09-12T00:30:39;9.40;;;8.00;;
74465;SDS011;62916;50.044;15.938;2023-09-12T00:33:10;8.00;;;7.20;;
74465;SDS011;62916;50.044;15.938;2023-09-12T00:35:42;9.60;;;8.70;;
74465;SDS011;62916;50.044;15.938;2023-09-12T00:38:13;8.60;;;7.70;;
74465;SDS011;62916;50.044;15.938;2023-09-12T00:40:44;8.50;;;7.70;;
74465;SDS011;62916;50.044;15.938;2023-09-12T00:43:16;8.50;;;7.70;;
74465;SDS011;62916;50.044;15.938;2023-09-12T00:45:46;8.60;;;7.70;;
74465;SDS011;62916;50.044;15.938;2023-09-12T00:48:18;8.60;;;7.80;;
74465;SDS011;62916;50.044;15.938;2023-09-12T00:50:51;10.00;;;8.10;;
74465;SDS011;62916;50.044;15.938;2023-09-12T00:53:22;9.30;;;8.10;;
74465;SDS011;62916;50.044;15.938;2023-09-12T00:55:56;9.00;;;8.10;;
74465;SDS011;62916;50.044;15.938;2023-09-12T00:58:28;8.40;;;7.60;;
74465;SDS011;62916;50.044;15.938;2023-09-12T01:00:59;9.40;;;8.40;;
74465;SDS011;62916;50.044;15.938;2023-09-12T01:03:31;9.20;;;8.30;;
74465;SDS011;62916;50.044;15.938;2023-09-12T01:06:04;12.50;;;8.60;;
74465;SDS011;62916;50.044;15.938;2023-09-12T01:08:37;10.70;;;8.50;;
74465;SDS011;62916;50.044;15.938;2023-09-12T01:11:09;9.60;;;8.40;;
74465;SDS011;62916;50.044;15.938;2023-09-12T01:13:40;9.60;;;8.40;;
74465;SDS011;62916;50.044;15.938;2023-09-12T01:16:11;10.70;;;8.10;;
74465;SDS011;62916;50.044;15.938;2023-09-12T01:18:42;9.00;;;7.70;;
74465;SDS011;62916;50.044;15.938;2023-09-12T01:21:26;9.20;;;8.30;;
74465;SDS011;62916;50.044;15.938;2023-09-12T01:27:21;9.00;;;8.10;;
74465;SDS011;62916;50.044;15.938;2023-09-12T01:29:56;9.90;;;8.90;;
74465;SDS011;62916;50.044;15.938;2023-09-12T01:32:31;9.40;;;8.20;;
74465;SDS011;62916;50.044;15.938;2023-09-12T01:35:04;9.30;;;8.30;;
74465;SDS011;62916;50.044;15.938;2023-09-12T01:37:36;10.60;;;9.70;;
74465;SDS011;62916;50.044;15.938;2023-09-12T01:40:08;10.10;;;8.60;;
74465;SDS011;62916;50.044;15.938;2023-09-12T01:42:41;8.80;;;7.90;;
74465;SDS011;62916;50.044;15.938;2023-09-12T01:45:15;9.50;;;8.50;;
74465;SDS011;62916;50.044;15.938;2023-09-12T01:47:51;9.60;;;8.70;;
74465;SDS011;62916;50.044;15.938;2023-09-12T01:50:23;9.40;;;8.40;;
74465;SDS011;62916;50.044;15.938;2023-09-12T01:52:57;9.70;;;7.80;;
74465;SDS011;62916;50.044;15.938;2023-09-12T01:55:29;8.80;;;7.90;;
74465;SDS011;62916;50.044;15.938;2023-09-12T01:58:00;9.20;;;7.90;;
74465;SDS011;62916;50.044;15.938;2023-09-12T02:00:32;9.00;;;8.20;;
74465;SDS011;62916;50.044;15.938;2023-09-12T02:03:05;9.00;;;8.10;;
74465;SDS011;62916;50.044;15.938;2023-09-12T02:05:36;8.90;;;8.10;;
74465;SDS011;62916;50.044;15.938;2023-09-12T02:08:08;9.20;;;8.30;;
74465;SDS011;62916;50.044;15.938;2023-09-12T02:10:39;9.50;;;8.50;;
74465;SDS011;62916;50.044;15.938;2023-09-12T02:13:10;9.30;;;8.40;;
74465;SDS011;62916;50.044;15.938;2023-09-12T02:15:42;8.90;;;8.00;;
74465;SDS011;62916;50.044;15.938;2023-09-12T02:18:13;10.80;;;9.10;;
74465;SDS011;62916;50.044;15.938;2023-09-12T02:20:44;9.80;;;8.20;;
74465;SDS011;62916;50.044;15.938;2023-09-12T02:23:16;9.00;;;8.10;;
74465;SDS011;62916;50.044;15.938;2023-09-12T02:25:47;10.90;;;8.70;;
74465;SDS011;62916;50.044;15.938;2023-09-12T02:28:18;10.60;;;8.60;;
74465;SDS011;62916;50.044;15.938;2023-09-12T02:30:49;9.80;;;8.80;;
74465;SDS011;62916;50.044;15.938;2023-09-12T02:33:20;9.70;;;8.70;;
74465;SDS011;62916;50.044;15.938;2023-09-12T02:35:51;9.70;;;8.80;;
74465;SDS011;62916;50.044;15.938;2023-09-12T02:38:22;9.50;;;8.50;;
74465;SDS011;62916;50.044;15.938;2023-09-12T02:40:52;9.50;;;8.40;;
74465;SDS011;62916;50.044;15.938;2023-09-12T02:43:23;13.30;;;9.90;;
74465;SDS011;62916;50.044;15.938;2023-09-12T02:45:54;9.00;;;8.10;;
74465;SDS011;62916;50.044;15.938;2023-09-12T02:48:25;9.50;;;8.40;;
74465;SDS011;62916;50.044;15.938;2023-09-12T02:50:56;8.50;;;7.60;;
74465;SDS011;62916;50.044;15.938;2023-09-12T02:53:27;9.10;;;8.10;;
74465;SDS011;62916;50.044;15.938;2023-09-12T02:55:58;9.80;;;8.90;;
74465;SDS011;62916;50.044;15.938;2023-09-12T02:58:29;9.70;;;8.80;;
74465;SDS011;62916;50.044;15.938;2023-09-12T03:01:00;9.90;;;8.70;;
74465;SDS011;62916;50.044;15.938;2023-09-12T03:03:33;10.40;;;9.40;;
74465;SDS011;62916;50.044;15.938;2023-09-12T03:06:04;10.30;;;8.60;;
74465;SDS011;62916;50.044;15.938;2023-09-12T03:08:36;9.60;;;8.60;;
74465;SDS011;62916;50.044;15.938;2023-09-12T03:11:08;9.00;;;8.20;;
74465;SDS011;62916;50.044;15.938;2023-09-12T03:13:39;9.90;;;8.90;;
74465;SDS011;62916;50.044;15.938;2023-09-12T03:16:11;8.80;;;7.90;;
74465;SDS011;62916;50.044;15.938;2023-09-12T03:18:42;10.10;;;9.10;;
74465;SDS011;62916;50.044;15.938;2023-09-12T03:21:15;9.90;;;8.40;;
74465;SDS011;62916;50.044;15.938;2023-09-12T03:23:46;9.40;;;8.40;;
74465;SDS011;62916;50.044;15.938;2023-09-12T03:26:17;9.90;;;8.90;;
74465;SDS011;62916;50.044;15.938;2023-09-12T03:28:48;10.00;;;8.30;;
74465;SDS011;62916;50.044;15.938;2023-09-12T03:31:19;9.00;;;8.10;;
74465;SDS011;62916;50.044;15.938;2023-09-12T03:33:50;8.80;;;7.40;;
74465;SDS011;62916;50.044;15.938;2023-09-12T03:36:21;11.50;;;8.50;;
74465;SDS011;62916;50.044;15.938;2023-09-12T03:38:52;9.00;;;8.10;;
74465;SDS011;62916;50.044;15.938;2023-09-12T03:41:23;9.50;;;8.10;;
74465;SDS011;62916;50.044;15.938;2023-09-12T03:43:54;8.50;;;7.60;;
74465;SDS011;62916;50.044;15.938;2023-09-12T03:46:25;9.40;;;8.50;;
74465;SDS011;62916;50.044;15.938;2023-09-12T03:48:56;8.10;;;7.30;;
74465;SDS011;62916;50.044;15.938;2023-09-12T03:51:27;8.40;;;7.60;;
74465;SDS011;62916;50.044;15.938;2023-09-12T03:53:58;10.70;;;8.00;;
74465;SDS011;62916;50.044;15.938;2023-09-12T03:56:29;11.30;;;8.20;;
74465;SDS011;62916;50.044;15.938;2023-09-12T03:59:00;8.00;;;7.20;;
74465;SDS011;62916;50.044;15.938;2023-09-12T04:01:31;8.30;;;7.50;;
74465;SDS011;62916;50.044;15.938;2023-09-12T04:04:03;11.30;;;7.50;;
74465;SDS011;62916;50.044;15.938;2023-09-12T04:06:34;8.50;;;7.70;;
74465;SDS011;62916;50.044;15.938;2023-09-12T04:09:05;8.80;;;7.30;;
74465;SDS011;62916;50.044;15.938;2023-09-12T04:11:36;9.10;;;7.90;;
74465;SDS011;62916;50.044;15.938;2023-09-12T04:14:14;8.20;;;7.30;;
74465;SDS011;62916;50.044;15.938;2023-09-12T04:16:45;9.00;;;7.90;;
74465;SDS011;62916;50.044;15.938;2023-09-12T04:19:16;10.00;;;7.20;;
74465;SDS011;62916;50.044;15.938;2023-09-12T04:21:47;11.80;;;8.30;;
74465;SDS011;62916;50.044;15.938;2023-09-12T04:24:17;16.80;;;8.20;;
74465;SDS011;62916;50.044;15.938;2023-09-12T04:26:49;17.10;;;8.20;;
74465;SDS011;62916;50.044;15.938;2023-09-12T04:29:20;19.50;;;9.00;;
74465;SDS011;62916;50.044;15.938;2023-09-12T04:31:50;15.90;;;8.40;;
74465;SDS011;62916;50.044;15.938;2023-09-12T04:34:26;18.40;;;8.40;;
74465;SDS011;62916;50.044;15.938;2023-09-12T04:36:57;16.70;;;8.50;;
74465;SDS011;62916;50.044;15.938;2023-09-12T04:39:30;12.80;;;8.70;;
74465;SDS011;62916;50.044;15.938;2023-09-12T04:42:01;13.30;;;8.20;;
74465;SDS011;62916;50.044;15.938;2023-09-12T04:44:35;13.30;;;8.30;;
74465;SDS011;62916;50.044;15.938;2023-09-12T04:47:08;13.70;;;7.80;;
74465;SDS011;62916;50.044;15.938;2023-09-12T04:49:40;10.80;;;8.60;;
74465;SDS011;62916;50.044;15.938;2023-09-12T04:52:12;11.40;;;7.60;;
74465;SDS011;62916;50.044;15.938;2023-09-12T04:54:42;10.40;;;7.60;;
74465;SDS011;62916;50.044;15.938;2023-09-12T04:57:14;10.40;;;7.90;;
74465;SDS011;62916;50.044;15.938;2023-09-12T04:59:44;9.80;;;7.30;;
74465;SDS011;62916;50.044;15.938;2023-09-12T05:02:15;9.90;;;7.50;;
74465;SDS011;62916;50.044;15.938;2023-09-12T05:04:46;10.00;;;7.90;;
74465;SDS011;62916;50.044;15.938;2023-09-12T05:07:17;9.80;;;8.10;;
74465;SDS011;62916;50.044;15.938;2023-09-12T05:09:48;10.10;;;7.80;;
74465;SDS011;62916;50.044;15.938;2023-09-12T05:12:18;8.80;;;7.60;;
74465;SDS011;62916;50.044;15.938;2023-09-12T05:14:49;9.20;;;7.70;;
74465;SDS011;62916;50.044;15.938;2023-09-12T05:17:20;7.90;;;7.20;;
74465;SDS011;62916;50.044;15.938;2023-09-12T05:19:51;11.90;;;7.70;;
74465;SDS011;62916;50.044;15.938;2023-09-12T05:22:22;8.70;;;7.90;;
74465;SDS011;62916;50.044;15.938;2023-09-12T05:24:53;8.20;;;7.20;;
74465;SDS011;62916;50.044;15.938;2023-09-12T05:27:24;8.30;;;7.40;;
74465;SDS011;62916;50.044;15.938;2023-09-12T05:29:55;9.00;;;7.80;;
74465;SDS011;62916;50.044;15.938;2023-09-12T05:32:25;8.40;;;7.30;;
74465;SDS011;62916;50.044;15.938;2023-09-12T05:34:56;7.90;;;6.80;;
74465;SDS011;62916;50.044;15.938;2023-09-12T05:37:47;8.50;;;7.10;;
74465;SDS011;62916;50.044;15.938;2023-09-12T05:40:19;9.40;;;8.10;;
74465;SDS011;62916;50.044;15.938;2023-09-12T05:42:50;9.60;;;8.70;;
74465;SDS011;62916;50.044;15.938;2023-09-12T05:45:21;9.20;;;7.80;;
74465;SDS011;62916;50.044;15.938;2023-09-12T05:47:52;9.10;;;7.40;;
74465;SDS011;62916;50.044;15.938;2023-09-12T05:50:23;8.10;;;7.30;;
74465;SDS011;62916;50.044;15.938;2023-09-12T05:52:54;7.70;;;7.00;;
74465;SDS011;62916;50.044;15.938;2023-09-12T05:55:25;8.40;;;7.20;;
74465;SDS011;62916;50.044;15.938;2023-09-12T05:57:56;8.40;;;7.60;;
74465;SDS011;62916;50.044;15.938;2023-09-12T06:00:27;7.80;;;7.00;;
74465;SDS011;62916;50.044;15.938;2023-09-12T06:02:58;8.00;;;7.20;;
74465;SDS011;62916;50.044;15.938;2023-09-12T06:05:29;8.30;;;7.50;;
74465;SDS011;62916;50.044;15.938;2023-09-12T06:08:00;8.50;;;7.70;;
74465;SDS011;62916;50.044;15.938;2023-09-12T06:10:32;8.90;;;7.90;;
74465;SDS011;62916;50.044;15.938;2023-09-12T06:13:03;9.10;;;8.00;;
74465;SDS011;62916;50.044;15.938;2023-09-12T06:15:36;8.40;;;7.30;;
74465;SDS011;62916;50.044;15.938;2023-09-12T06:18:09;9.20;;;7.90;;
74465;SDS011;62916;50.044;15.938;2023-09-12T06:20:40;8.20;;;7.40;;
74465;SDS011;62916;50.044;15.938;2023-09-12T06:23:11;8.70;;;7.80;;
74465;SDS011;62916;50.044;15.938;2023-09-12T06:25:42;8.20;;;7.20;;
74465;SDS011;62916;50.044;15.938;2023-09-12T06:28:13;8.50;;;7.60;;
74465;SDS011;62916;50.044;15.938;2023-09-12T06:30:55;9.10;;;8.00;;
74465;SDS011;62916;50.044;15.938;2023-09-12T06:33:26;8.40;;;6.80;;
74465;SDS011;62916;50.044;15.938;2023-09-12T06:35:57;8.70;;;7.50;;
74465;SDS011;62916;50.044;15.938;2023-09-12T06:38:28;8.50;;;7.70;;
74465;SDS011;62916;50.044;15.938;2023-09-12T06:40:59;8.60;;;7.80;;
74465;SDS011;62916;50.044;15.938;2023-09-12T06:43:31;8.80;;;7.80;;
74465;SDS011;62916;50.044;15.938;2023-09-12T06:46:02;8.80;;;7.80;;
74465;SDS011;62916;50.044;15.938;2023-09-12T06:48:33;8.90;;;8.00;;
74465;SDS011;62916;50.044;15.938;2023-09-12T06:51:05;8.00;;;7.20;;
74465;SDS011;62916;50.044;15.938;2023-09-12T06:56:14;7.70;;;7.00;;
74465;SDS011;62916;50.044;15.938;2023-09-12T06:58:44;9.40;;;8.40;;
74465;SDS011;62916;50.044;15.938;2023-09-12T07:01:16;9.00;;;8.10;;
74465;SDS011;62916;50.044;15.938;2023-09-12T07:03:47;9.30;;;8.40;;
74465;SDS011;62916;50.044;15.938;2023-09-12T07:06:22;9.60;;;7.70;;
74465;SDS011;62916;50.044;15.938;2023-09-12T07:08:53;8.90;;;7.80;;
74465;SDS011;62916;50.044;15.938;2023-09-12T07:11:24;8.40;;;7.50;;
74465;SDS011;62916;50.044;15.938;2023-09-12T07:13:55;8.60;;;7.20;;
74465;SDS011;62916;50.044;15.938;2023-09-12T07:16:25;8.10;;;7.30;;
74465;SDS011;62916;50.044;15.938;2023-09-12T07:18:56;8.30;;;7.40;;
74465;SDS011;62916;50.044;15.938;2023-09-12T07:21:28;8.00;;;7.20;;
74465;SDS011;62916;50.044;15.938;2023-09-12T07:24:01;8.10;;;7.10;;
74465;SDS011;62916;50.044;15.938;2023-09-12T07:26:32;8.10;;;7.30;;
74465;SDS011;62916;50.044;15.938;2023-09-12T07:29:03;8.60;;;7.70;;
74465;SDS011;62916;50.044;15.938;2023-09-12T07:31:34;9.00;;;8.00;;
74465;SDS011;62916;50.044;15.938;2023-09-12T07:34:05;8.30;;;7.40;;
74465;SDS011;62916;50.044;15.938;2023-09-12T07:36:36;8.90;;;7.30;;
74465;SDS011;62916;50.044;15.938;2023-09-12T07:39:07;8.90;;;8.00;;
74465;SDS011;62916;50.044;15.938;2023-09-12T07:41:38;7.80;;;7.00;;
74465;SDS011;62916;50.044;15.938;2023-09-12T07:44:09;8.30;;;7.50;;
74465;SDS011;62916;50.044;15.938;2023-09-12T07:46:43;7.70;;;7.00;;
74465;SDS011;62916;50.044;15.938;2023-09-12T07:49:14;8.50;;;7.70;;
74465;SDS011;62916;50.044;15.938;2023-09-12T07:51:45;7.40;;;6.70;;
74465;SDS011;62916;50.044;15.938;2023-09-12T07:54:16;8.30;;;7.50;;
74465;SDS011;62916;50.044;15.938;2023-09-12T07:56:47;8.10;;;7.10;;
74465;SDS011;62916;50.044;15.938;2023-09-12T07:59:18;8.20;;;7.40;;
74465;SDS011;62916;50.044;15.938;2023-09-12T08:01:50;7.20;;;6.50;;
74465;SDS011;62916;50.044;15.938;2023-09-12T08:04:21;8.00;;;7.20;;
74465;SDS011;62916;50.044;15.938;2023-09-12T08:06:52;7.80;;;7.10;;
74465;SDS011;62916;50.044;15.938;2023-09-12T08:09:28;8.60;;;7.90;;
74465;SDS011;62916;50.044;15.938;2023-09-12T08:12:21;7.50;;;6.80;;
74465;SDS011;62916;50.044;15.938;2023-09-12T08:14:53;7.40;;;6.80;;
74465;SDS011;62916;50.044;15.938;2023-09-12T08:17:25;7.90;;;7.20;;
74465;SDS011;62916;50.044;15.938;2023-09-12T08:19:56;7.20;;;6.50;;
74465;SDS011;62916;50.044;15.938;2023-09-12T08:22:27;7.90;;;7.10;;
74465;SDS011;62916;50.044;15.938;2023-09-12T08:24:58;7.60;;;6.90;;
74465;SDS011;62916;50.044;15.938;2023-09-12T08:27:29;7.50;;;6.90;;
74465;SDS011;62916;50.044;15.938;2023-09-12T08:30:00;7.50;;;6.70;;
74465;SDS011;62916;50.044;15.938;2023-09-12T08:32:32;7.10;;;6.40;;
74465;SDS011;62916;50.044;15.938;2023-09-12T08:35:03;8.60;;;7.40;;
74465;SDS011;62916;50.044;15.938;2023-09-12T08:37:35;7.80;;;7.10;;
74465;SDS011;62916;50.044;15.938;2023-09-12T08:40:07;7.70;;;7.00;;
74465;SDS011;62916;50.044;15.938;2023-09-12T08:42:40;7.40;;;6.60;;
74465;SDS011;62916;50.044;15.938;2023-09-12T08:45:13;7.40;;;6.70;;
74465;SDS011;62916;50.044;15.938;2023-09-12T08:47:45;7.80;;;7.10;;
74465;SDS011;62916;50.044;15.938;2023-09-12T08:50:19;7.10;;;6.40;;
74465;SDS011;62916;50.044;15.938;2023-09-12T08:52:51;6.90;;;6.30;;
74465;SDS011;62916;50.044;15.938;2023-09-12T08:55:35;7.60;;;6.80;;
74465;SDS011;62916;50.044;15.938;2023-09-12T08:58:06;7.80;;;7.00;;
74465;SDS011;62916;50.044;15.938;2023-09-12T09:00:37;6.90;;;6.20;;
74465;SDS011;62916;50.044;15.938;2023-09-12T09:03:08;7.20;;;6.60;;
74465;SDS011;62916;50.044;15.938;2023-09-12T09:05:40;7.40;;;6.70;;
74465;SDS011;62916;50.044;15.938;2023-09-12T09:08:13;7.40;;;6.60;;
74465;SDS011;62916;50.044;15.938;2023-09-12T09:10:55;7.20;;;6.50;;
74465;SDS011;62916;50.044;15.938;2023-09-12T09:13:27;7.20;;;6.50;;
74465;SDS011;62916;50.044;15.938;2023-09-12T09:16:11;8.90;;;6.90;;
74465;SDS011;62916;50.044;15.938;2023-09-12T09:18:52;7.20;;;6.50;;
74465;SDS011;62916;50.044;15.938;2023-09-12T09:21:26;6.90;;;6.20;;
74465;SDS011;62916;50.044;15.938;2023-09-12T09:24:00;7.10;;;6.40;;
74465;SDS011;62916;50.044;15.938;2023-09-12T09:26:45;6.40;;;5.80;;
74465;SDS011;62916;50.044;15.938;2023-09-12T09:29:18;6.90;;;6.20;;
74465;SDS011;62916;50.044;15.938;2023-09-12T09:31:50;7.40;;;6.70;;
74465;SDS011;62916;50.044;15.938;2023-09-12T09:34:22;6.30;;;5.70;;
74465;SDS011;62916;50.044;15.938;2023-09-12T09:36:55;8.40;;;7.50;;
74465;SDS011;62916;50.044;15.938;2023-09-12T09:39:27;7.00;;;6.30;;
74465;SDS011;62916;50.044;15.938;2023-09-12T09:41:58;7.30;;;6.60;;
74465;SDS011;62916;50.044;15.938;2023-09-12T09:44:29;7.50;;;6.60;;
74465;SDS011;62916;50.044;15.938;2023-09-12T09:47:02;7.20;;;6.40;;
74465;SDS011;62916;50.044;15.938;2023-09-12T09:49:34;6.60;;;6.00;;
74465;SDS011;62916;50.044;15.938;2023-09-12T09:52:05;6.60;;;6.00;;
74465;SDS011;62916;50.044;15.938;2023-09-12T09:54:36;7.00;;;6.30;;
74465;SDS011;62916;50.044;15.938;2023-09-12T09:57:14;7.30;;;6.60;;
74465;SDS011;62916;50.044;15.938;2023-09-12T09:59:45;6.80;;;6.20;;
74465;SDS011;62916;50.044;15.938;2023-09-12T10:02:19;7.40;;;6.60;;
74465;SDS011;62916;50.044;15.938;2023-09-12T10:04:54;7.90;;;7.20;;
74465;SDS011;62916;50.044;15.938;2023-09-12T10:07:28;6.60;;;6.00;;
74465;SDS011;62916;50.044;15.938;2023-09-12T10:10:02;6.80;;;6.20;;
74465;SDS011;62916;50.044;15.938;2023-09-12T10:12:35;8.00;;;7.30;;
74465;SDS011;62916;50.044;15.938;2023-09-12T10:15:10;7.00;;;6.30;;
74465;SDS011;62916;50.044;15.938;2023-09-12T10:17:43;7.50;;;6.80;;
74465;SDS011;62916;50.044;15.938;2023-09-12T10:20:27;7.20;;;6.50;;
74465;SDS011;62916;50.044;15.938;2023-09-12T10:23:05;6.90;;;6.20;;
74465;SDS011;62916;50.044;15.938;2023-09-12T10:25:41;6.90;;;6.20;;
74465;SDS011;62916;50.044;15.938;2023-09-12T10:28:15;7.20;;;6.30;;
74465;SDS011;62916;50.044;15.938;2023-09-12T10:30:46;7.00;;;6.30;;
74465;SDS011;62916;50.044;15.938;2023-09-12T10:33:18;6.30;;;5.70;;
74465;SDS011;62916;50.044;15.938;2023-09-12T10:35:50;8.10;;;7.40;;
74465;SDS011;62916;50.044;15.938;2023-09-12T10:38:21;6.50;;;5.90;;
74465;SDS011;62916;50.044;15.938;2023-09-12T10:40:55;7.30;;;6.60;;
74465;SDS011;62916;50.044;15.938;2023-09-12T10:43:29;6.90;;;6.30;;
74465;SDS011;62916;50.044;15.938;2023-09-12T10:46:04;7.70;;;6.30;;
74465;SDS011;62916;50.044;15.938;2023-09-12T10:48:36;7.40;;;6.60;;
74465;SDS011;62916;50.044;15.938;2023-09-12T10:51:08;6.90;;;6.20;;
74465;SDS011;62916;50.044;15.938;2023-09-12T10:56:18;6.40;;;5.70;;
74465;SDS011;62916;50.044;15.938;2023-09-12T10:59:10;6.40;;;5.80;;
74465;SDS011;62916;50.044;15.938;2023-09-12T11:01:43;6.40;;;5.90;;
74465;SDS011;62916;50.044;15.938;2023-09-12T11:10:17;6.90;;;6.20;;
74465;SDS011;62916;50.044;15.938;2023-09-12T11:12:49;6.40;;;5.80;;
74465;SDS011;62916;50.044;15.938;2023-09-12T11:15:22;6.50;;;6.00;;
74465;SDS011;62916;50.044;15.938;2023-09-12T11:18:01;7.80;;;7.10;;
74465;SDS011;62916;50.044;15.938;2023-09-12T11:23:20;6.40;;;5.80;;
74465;SDS011;62916;50.044;15.938;2023-09-12T11:26:03;7.50;;;6.80;;
74465;SDS011;62916;50.044;15.938;2023-09-12T11:28:35;6.80;;;6.20;;
74465;SDS011;62916;50.044;15.938;2023-09-12T11:31:07;7.30;;;6.60;;
74465;SDS011;62916;50.044;15.938;2023-09-12T11:33:40;8.00;;;7.30;;
74465;SDS011;62916;50.044;15.938;2023-09-12T11:36:14;7.10;;;6.40;;
74465;SDS011;62916;50.044;15.938;2023-09-12T11:38:50;7.30;;;6.60;;
74465;SDS011;62916;50.044;15.938;2023-09-12T11:44:11;7.50;;;6.60;;
74465;SDS011;62916;50.044;15.938;2023-09-12T11:46:42;6.70;;;6.10;;
74465;SDS011;62916;50.044;15.938;2023-09-12T11:49:16;6.80;;;6.20;;
74465;SDS011;62916;50.044;15.938;2023-09-12T11:51:48;7.50;;;6.80;;
74465;SDS011;62916;50.044;15.938;2023-09-12T11:54:24;7.20;;;6.50;;
74465;SDS011;62916;50.044;15.938;2023-09-12T11:56:55;7.30;;;6.60;;
74465;SDS011;62916;50.044;15.938;2023-09-12T11:59:28;7.50;;;6.50;;
74465;SDS011;62916;50.044;15.938;2023-09-12T12:01:59;6.70;;;6.10;;
74465;SDS011;62916;50.044;15.938;2023-09-12T12:04:30;7.50;;;6.80;;
74465;SDS011;62916;50.044;15.938;2023-09-12T12:07:02;7.10;;;6.30;;
74465;SDS011;62916;50.044;15.938;2023-09-12T12:09:34;7.40;;;6.40;;
74465;SDS011;62916;50.044;15.938;2023-09-12T12:12:10;8.00;;;7.20;;
74465;SDS011;62916;50.044;15.938;2023-09-12T12:14:42;7.50;;;6.70;;
74465;SDS011;62916;50.044;15.938;2023-09-12T12:17:13;7.60;;;6.80;;
74465;SDS011;62916;50.044;15.938;2023-09-12T12:19:46;7.70;;;6.90;;
74465;SDS011;62916;50.044;15.938;2023-09-12T12:22:17;7.60;;;6.90;;
74465;SDS011;62916;50.044;15.938;2023-09-12T12:24:48;8.00;;;7.20;;
74465;SDS011;62916;50.044;15.938;2023-09-12T12:27:20;7.20;;;6.60;;
74465;SDS011;62916;50.044;15.938;2023-09-12T12:29:51;7.40;;;6.70;;
74465;SDS011;62916;50.044;15.938;2023-09-12T12:32:22;7.40;;;6.80;;
74465;SDS011;62916;50.044;15.938;2023-09-12T12:34:53;7.40;;;6.80;;
74465;SDS011;62916;50.044;15.938;2023-09-12T12:37:44;7.40;;;6.70;;
74465;SDS011;62916;50.044;15.938;2023-09-12T12:40:26;7.00;;;6.40;;
74465;SDS011;62916;50.044;15.938;2023-09-12T12:43:17;7.40;;;6.80;;
74465;SDS011;62916;50.044;15.938;2023-09-12T12:45:55;7.10;;;6.50;;
74465;SDS011;62916;50.044;15.938;2023-09-12T12:48:31;7.10;;;6.40;;
74465;SDS011;62916;50.044;15.938;2023-09-12T12:51:13;7.50;;;6.80;;
74465;SDS011;62916;50.044;15.938;2023-09-12T12:53:46;7.40;;;6.70;;
74465;SDS011;62916;50.044;15.938;2023-09-12T12:56:21;7.10;;;6.40;;
74465;SDS011;62916;50.044;15.938;2023-09-12T12:58:59;7.60;;;6.80;;
74465;SDS011;62916;50.044;15.938;2023-09-12T13:01:32;7.60;;;6.90;;
74465;SDS011;62916;50.044;15.938;2023-09-12T13:04:05;7.50;;;6.80;;
74465;SDS011;62916;50.044;15.938;2023-09-12T13:06:37;7.50;;;6.80;;
74465;SDS011;62916;50.044;15.938;2023-09-12T13:09:08;8.40;;;7.60;;
74465;SDS011;62916;50.044;15.938;2023-09-12T13:11:40;7.40;;;6.70;;
74465;SDS011;62916;50.044;15.938;2023-09-12T13:14:11;7.10;;;6.50;;
74465;SDS011;62916;50.044;15.938;2023-09-12T13:16:42;7.60;;;6.90;;
74465;SDS011;62916;50.044;15.938;2023-09-12T13:19:13;8.00;;;7.30;;
74465;SDS011;62916;50.044;15.938;2023-09-12T13:21:44;6.80;;;6.20;;
74465;SDS011;62916;50.044;15.938;2023-09-12T13:24:15;7.30;;;6.60;;
74465;SDS011;62916;50.044;15.938;2023-09-12T13:26:46;7.70;;;7.00;;
74465;SDS011;62916;50.044;15.938;2023-09-12T13:29:17;7.40;;;6.70;;
74465;SDS011;62916;50.044;15.938;2023-09-12T13:31:48;7.40;;;6.60;;
74465;SDS011;62916;50.044;15.938;2023-09-12T13:34:19;7.80;;;7.20;;
74465;SDS011;62916;50.044;15.938;2023-09-12T13:36:50;7.00;;;6.40;;
74465;SDS011;62916;50.044;15.938;2023-09-12T13:39:36;7.20;;;6.60;;
74465;SDS011;62916;50.044;15.938;2023-09-12T13:42:08;14.10;;;6.80;;
74465;SDS011;62916;50.044;15.938;2023-09-12T13:44:39;9.80;;;6.70;;
74465;SDS011;62916;50.044;15.938;2023-09-12T13:47:10;10.50;;;6.80;;
74465;SDS011;62916;50.044;15.938;2023-09-12T13:49:41;11.00;;;7.40;;
74465;SDS011;62916;50.044;15.938;2023-09-12T13:52:12;8.60;;;7.00;;
74465;SDS011;62916;50.044;15.938;2023-09-12T13:54:44;14.10;;;7.50;;
74465;SDS011;62916;50.044;15.938;2023-09-12T13:57:15;14.50;;;7.00;;
74465;SDS011;62916;50.044;15.938;2023-09-12T13:59:46;10.10;;;7.00;;
74465;SDS011;62916;50.044;15.938;2023-09-12T14:02:17;10.00;;;7.00;;
74465;SDS011;62916;50.044;15.938;2023-09-12T14:04:52;10.30;;;6.80;;
74465;SDS011;62916;50.044;15.938;2023-09-12T14:07:41;7.70;;;6.40;;
74465;SDS011;62916;50.044;15.938;2023-09-12T14:10:12;12.70;;;6.40;;
74465;SDS011;62916;50.044;15.938;2023-09-12T14:12:58;9.50;;;6.90;;
74465;SDS011;62916;50.044;15.938;2023-09-12T14:15:34;8.70;;;6.60;;
74465;SDS011;62916;50.044;15.938;2023-09-12T14:18:06;8.20;;;5.90;;
74465;SDS011;62916;50.044;15.938;2023-09-12T14:20:38;8.10;;;6.60;;
74465;SDS011;62916;50.044;15.938;2023-09-12T14:23:10;10.10;;;6.40;;
74465;SDS011;62916;50.044;15.938;2023-09-12T14:25:41;9.10;;;6.70;;
74465;SDS011;62916;50.044;15.938;2023-09-12T14:28:13;7.90;;;6.90;;
74465;SDS011;62916;50.044;15.938;2023-09-12T14:30:46;7.80;;;6.40;;
74465;SDS011;62916;50.044;15.938;2023-09-12T14:33:20;7.60;;;6.50;;
74465;SDS011;62916;50.044;15.938;2023-09-12T14:35:52;6.60;;;5.90;;
74465;SDS011;62916;50.044;15.938;2023-09-12T14:38:23;6.80;;;6.10;;
74465;SDS011;62916;50.044;15.938;2023-09-12T14:40:54;7.90;;;7.10;;
74465;SDS011;62916;50.044;15.938;2023-09-12T14:43:26;7.20;;;6.40;;
74465;SDS011;62916;50.044;15.938;2023-09-12T14:45:57;7.20;;;6.40;;
74465;SDS011;62916;50.044;15.938;2023-09-12T14:48:29;6.90;;;6.30;;
74465;SDS011;62916;50.044;15.938;2023-09-12T14:51:02;7.90;;;6.10;;
74465;SDS011;62916;50.044;15.938;2023-09-12T14:53:34;9.20;;;6.40;;
74465;SDS011;62916;50.044;15.938;2023-09-12T14:56:07;7.80;;;6.90;;
74465;SDS011;62916;50.044;15.938;2023-09-12T14:58:38;7.90;;;6.40;;
74465;SDS011;62916;50.044;15.938;2023-09-12T15:01:08;7.30;;;6.10;;
74465;SDS011;62916;50.044;15.938;2023-09-12T15:03:39;7.20;;;6.50;;
74465;SDS011;62916;50.044;15.938;2023-09-12T15:06:11;6.70;;;6.00;;
74465;SDS011;62916;50.044;15.938;2023-09-12T15:08:42;7.50;;;6.30;;
74465;SDS011;62916;50.044;15.938;2023-09-12T15:11:13;7.60;;;6.90;;
74465;SDS011;62916;50.044;15.938;2023-09-12T15:13:44;7.10;;;6.40;;
74465;SDS011;62916;50.044;15.938;2023-09-12T15:16:16;7.80;;;7.00;;
74465;SDS011;62916;50.044;15.938;2023-09-12T15:18:47;7.40;;;6.80;;
74465;SDS011;62916;50.044;15.938;2023-09-12T15:21:20;7.50;;;6.80;;
74465;SDS011;62916;50.044;15.938;2023-09-12T15:23:51;7.80;;;7.00;;